^^
Saratoga-Weather Station Historical Data
Daily Summary for April 2, 2021 Units:  Both    English   Metric
Daily Weekly Monthly Yearly Custom
  High: Low: Average:
Temperature: 77.2 °F /  25.1 °C 53.1 °F /  11.7 °C 64.2 °F /  17.9 °C
Dew Point: 57.9 °F /  14.4 °C 50.7 °F /  10.4 °C 54.3 °F /  12.4 °C
Humidity: 92% 47% 73%
Wind Speed: 10.1mph /  16.3km/h - 1.7mph /  2.8km/h
Wind Gust: 14mph /  22.5km/h - -
Wind- - SE
Pressure: 30.3 in /  1025.1 hPa 30.1 in /  1020.3 hPa -
Precipitation: 0 in /  0.0 mm    
Historical Graphs
 
 
Tabular Data for April 2, 2021
Time Temperature Dew Point Pressure Wind Wind Speed Wind Gust Humidity Rainfall Rate (Hourly) solar
00:04 57.7 °F /  14.3 °C 52.7 °F /  11.5 °C 30.3in /  1025.1hPa Calm   1mph /  1.6km/h 83% 0in /  0.0mm 0 W/m2
00:09 57.6 °F /  14.2 °C 52.5 °F /  11.4 °C 30.3in /  1025.1hPa NW 0.9mph /  1.4km/h 3mph /  4.8km/h 83% 0in /  0.0mm 0 W/m2
00:14 57.4 °F /  14.1 °C 52.5 °F /  11.4 °C 30.3in /  1025.1hPa West 0.9mph /  1.4km/h 2mph /  3.2km/h 84% 0in /  0.0mm 0 W/m2
00:19 57.2 °F /  14 °C 52.3 °F /  11.3 °C 30.3in /  1025.1hPa Calm   3mph /  4.8km/h 84% 0in /  0.0mm 0 W/m2
00:24 56.8 °F /  13.8 °C 52 °F /  11.1 °C 30.3in /  1025.1hPa Calm   2mph /  3.2km/h 84% 0in /  0.0mm 0 W/m2
00:29 56.7 °F /  13.7 °C 52.2 °F /  11.2 °C 30.3in /  1025.1hPa West 0.9mph /  1.4km/h 2mph /  3.2km/h 85% 0in /  0.0mm 0 W/m2
00:34 56.5 °F /  13.6 °C 52 °F /  11.1 °C 30.3in /  1025.1hPa Calm   1mph /  1.6km/h 85% 0in /  0.0mm 0 W/m2
00:39 56.1 °F /  13.4 °C 52 °F /  11.1 °C 30.3in /  1025.1hPa Calm   2mph /  3.2km/h 86% 0in /  0.0mm 0 W/m2
00:44 56.1 °F /  13.4 °C 52 °F /  11.1 °C 30.3in /  1025.1hPa NW 2mph /  3.2km/h 2mph /  3.2km/h 86% 0in /  0.0mm 0 W/m2
00:49 55.9 °F /  13.3 °C 51.8 °F /  11 °C 30.3in /  1025.1hPa NW 0.9mph /  1.4km/h 2mph /  3.2km/h 86% 0in /  0.0mm 0 W/m2
00:55 55.8 °F /  13.2 °C 51.6 °F /  10.9 °C 30.3in /  1025.1hPa Calm   2mph /  3.2km/h 86% 0in /  0.0mm 0 W/m2
01:00 55.8 °F /  13.2 °C 52 °F /  11.1 °C 30.3in /  1025.1hPa West 0.9mph /  1.4km/h 2mph /  3.2km/h 87% 0in /  0.0mm 0 W/m2
01:20 55.9 °F /  13.3 °C 52.2 °F /  11.2 °C 30.3in /  1025.1hPa NW 2mph /  3.2km/h 2mph /  3.2km/h 87% 0in /  0.0mm 0 W/m2
01:25 55.9 °F /  13.3 °C 52.2 °F /  11.2 °C 30.3in /  1025.1hPa WSW 2mph /  3.2km/h 3mph /  4.8km/h 87% 0in /  0.0mm 0 W/m2
01:30 55.9 °F /  13.3 °C 52.2 °F /  11.2 °C 30.3in /  1025.1hPa Calm   2mph /  3.2km/h 87% 0in /  0.0mm 0 W/m2
01:35 55.9 °F /  13.3 °C 52.2 °F /  11.2 °C 30.3in /  1025.1hPa West 0.9mph /  1.4km/h 2mph /  3.2km/h 87% 0in /  0.0mm 0 W/m2
01:40 55.9 °F /  13.3 °C 51.8 °F /  11 °C 30.3in /  1025.1hPa Calm   1mph /  1.6km/h 86% 0in /  0.0mm 0 W/m2
01:45 55.9 °F /  13.3 °C 52.2 °F /  11.2 °C 30.3in /  1025.1hPa SW 0.9mph /  1.4km/h 2mph /  3.2km/h 87% 0in /  0.0mm 0 W/m2
01:50 55.9 °F /  13.3 °C 52.2 °F /  11.2 °C 30.3in /  1025.1hPa Calm   2mph /  3.2km/h 87% 0in /  0.0mm 0 W/m2
01:55 55.8 °F /  13.2 °C 52 °F /  11.1 °C 30.3in /  1025.1hPa WNW 0.9mph /  1.4km/h 3mph /  4.8km/h 87% 0in /  0.0mm 0 W/m2
02:00 55.8 °F /  13.2 °C 52 °F /  11.1 °C 30.3in /  1025.1hPa WNW 0.9mph /  1.4km/h 4mph /  6.4km/h 87% 0in /  0.0mm 0 W/m2
02:05 55.8 °F /  13.2 °C 52 °F /  11.1 °C 30.3in /  1025.1hPa WNW 2mph /  3.2km/h 2mph /  3.2km/h 87% 0in /  0.0mm 0 W/m2
02:10 55.6 °F /  13.1 °C 51.8 °F /  11 °C 30.3in /  1025.1hPa West 2.9mph /  4.7km/h 3mph /  4.8km/h 87% 0in /  0.0mm 0 W/m2
02:15 55.6 °F /  13.1 °C 51.8 °F /  11 °C 30.3in /  1025.1hPa WNW 0.9mph /  1.4km/h 2mph /  3.2km/h 87% 0in /  0.0mm 0 W/m2
02:32 55.2 °F /  12.9 °C 51.8 °F /  11 °C 30.3in /  1024.7hPa West 2mph /  3.2km/h 2mph /  3.2km/h 88% 0in /  0.0mm 0 W/m2
02:37 55.2 °F /  12.9 °C 51.8 °F /  11 °C 30.3in /  1024.7hPa Calm   2mph /  3.2km/h 88% 0in /  0.0mm 0 W/m2
02:42 55 °F /  12.8 °C 51.6 °F /  10.9 °C 30.3in /  1024.7hPa Calm   1mph /  1.6km/h 88% 0in /  0.0mm 0 W/m2
02:47 54.9 °F /  12.7 °C 51.4 °F /  10.8 °C 30.3in /  1024.7hPa Calm   2mph /  3.2km/h 88% 0in /  0.0mm 0 W/m2
02:52 54.9 °F /  12.7 °C 51.6 °F /  10.9 °C 30.3in /  1024.7hPa Calm   1mph /  1.6km/h 89% 0in /  0.0mm 0 W/m2
03:12 54.7 °F /  12.6 °C 51.8 °F /  11 °C 30.3in /  1024.4hPa Calm   2mph /  3.2km/h 90% 0in /  0.0mm 0 W/m2
03:17 54.7 °F /  12.6 °C 51.8 °F /  11 °C 30.3in /  1024.4hPa North 2.9mph /  4.7km/h 3mph /  4.8km/h 90% 0in /  0.0mm 0 W/m2
03:22 54.9 °F /  12.7 °C 52 °F /  11.1 °C 30.3in /  1024.4hPa WNW 0.9mph /  1.4km/h 2mph /  3.2km/h 90% 0in /  0.0mm 0 W/m2
03:27 54.9 °F /  12.7 °C 52 °F /  11.1 °C 30.3in /  1024.4hPa WNW 0.9mph /  1.4km/h 2mph /  3.2km/h 90% 0in /  0.0mm 0 W/m2
03:32 54.7 °F /  12.6 °C 51.8 °F /  11 °C 30.3in /  1024.4hPa Calm   1mph /  1.6km/h 90% 0in /  0.0mm 0 W/m2
03:37 54.7 °F /  12.6 °C 51.8 °F /  11 °C 30.3in /  1024.4hPa WNW 0.9mph /  1.4km/h 2mph /  3.2km/h 90% 0in /  0.0mm 0 W/m2
03:42 54.5 °F /  12.5 °C 51.6 °F /  10.9 °C 30.2in /  1024.0hPa NW 0.9mph /  1.4km/h 3mph /  4.8km/h 90% 0in /  0.0mm 0 W/m2
03:47 54.7 °F /  12.6 °C 51.8 °F /  11 °C 30.2in /  1024.0hPa Calm   1mph /  1.6km/h 90% 0in /  0.0mm 0 W/m2
03:52 54.5 °F /  12.5 °C 51.6 °F /  10.9 °C 30.2in /  1024.0hPa Calm   3mph /  4.8km/h 90% 0in /  0.0mm 0 W/m2
03:57 54.3 °F /  12.4 °C 51.4 °F /  10.8 °C 30.2in /  1024.0hPa NW 0.9mph /  1.4km/h 2mph /  3.2km/h 90% 0in /  0.0mm 0 W/m2
04:13 54.1 °F /  12.3 °C 51.6 °F /  10.9 °C 30.2in /  1024.0hPa SE 0.9mph /  1.4km/h 1mph /  1.6km/h 91% 0in /  0.0mm 0 W/m2
04:18 54.1 °F /  12.3 °C 51.6 °F /  10.9 °C 30.2in /  1024.0hPa Calm   2mph /  3.2km/h 91% 0in /  0.0mm 0 W/m2
04:23 54.1 °F /  12.3 °C 51.6 °F /  10.9 °C 30.2in /  1024.0hPa SW 2mph /  3.2km/h 3mph /  4.8km/h 91% 0in /  0.0mm 0 W/m2
04:28 54.1 °F /  12.3 °C 51.6 °F /  10.9 °C 30.2in /  1024.0hPa Calm   1mph /  1.6km/h 91% 0in /  0.0mm 0 W/m2
04:33 54 °F /  12.2 °C 51.4 °F /  10.8 °C 30.2in /  1024.0hPa NE 0.9mph /  1.4km/h 2mph /  3.2km/h 91% 0in /  0.0mm 0 W/m2
04:38 54 °F /  12.2 °C 51.6 °F /  10.9 °C 30.2in /  1024.0hPa North 0.9mph /  1.4km/h 2mph /  3.2km/h 92% 0in /  0.0mm 0 W/m2
04:43 54.1 °F /  12.3 °C 51.8 °F /  11 °C 30.2in /  1024.0hPa NE 0.9mph /  1.4km/h 3mph /  4.8km/h 92% 0in /  0.0mm 0 W/m2
04:48 54 °F /  12.2 °C 51.4 °F /  10.8 °C 30.2in /  1024.0hPa NNE 0.9mph /  1.4km/h 2mph /  3.2km/h 91% 0in /  0.0mm 0 W/m2
04:53 54.1 °F /  12.3 °C 51.6 °F /  10.9 °C 30.2in /  1024.0hPa Calm   2mph /  3.2km/h 91% 0in /  0.0mm 0 W/m2
04:58 54 °F /  12.2 °C 51.4 °F /  10.8 °C 30.2in /  1024.0hPa Calm     91% 0in /  0.0mm 0 W/m2
05:03 54 °F /  12.2 °C 51.4 °F /  10.8 °C 30.2in /  1024.0hPa North 0.9mph /  1.4km/h 3mph /  4.8km/h 91% 0in /  0.0mm 0 W/m2
05:08 54 °F /  12.2 °C 51.4 °F /  10.8 °C 30.2in /  1023.7hPa NE 0.9mph /  1.4km/h 1mph /  1.6km/h 91% 0in /  0.0mm 0 W/m2
05:13 53.8 °F /  12.1 °C 51.3 °F /  10.7 °C 30.2in /  1024.0hPa NE 0.9mph /  1.4km/h 3mph /  4.8km/h 91% 0in /  0.0mm 0 W/m2
05:18 53.8 °F /  12.1 °C 51.4 °F /  10.8 °C 30.2in /  1024.0hPa Calm   3mph /  4.8km/h 92% 0in /  0.0mm 0 W/m2
05:23 53.8 °F /  12.1 °C 51.4 °F /  10.8 °C 30.2in /  1024.0hPa Calm   1mph /  1.6km/h 92% 0in /  0.0mm 0 W/m2
05:28 53.8 °F /  12.1 °C 51.4 °F /  10.8 °C 30.2in /  1024.0hPa Calm   1mph /  1.6km/h 92% 0in /  0.0mm 0 W/m2
05:33 53.8 °F /  12.1 °C 51.4 °F /  10.8 °C 30.2in /  1024.0hPa Calm   2mph /  3.2km/h 92% 0in /  0.0mm 0 W/m2
05:38 53.8 °F /  12.1 °C 51.4 °F /  10.8 °C 30.2in /  1024.0hPa Calm   1mph /  1.6km/h 92% 0in /  0.0mm 0 W/m2
05:44 53.8 °F /  12.1 °C 51.4 °F /  10.8 °C 30.2in /  1023.7hPa Calm   2mph /  3.2km/h 92% 0in /  0.0mm 0 W/m2
05:49 53.6 °F /  12 °C 51.3 °F /  10.7 °C 30.2in /  1024.0hPa NNE 2mph /  3.2km/h 2mph /  3.2km/h 92% 0in /  0.0mm 0 W/m2
05:54 53.4 °F /  11.9 °C 51.1 °F /  10.6 °C 30.2in /  1024.0hPa Calm   2mph /  3.2km/h 92% 0in /  0.0mm 0 W/m2
05:59 53.4 °F /  11.9 °C 51.1 °F /  10.6 °C 30.2in /  1024.0hPa Calm   1mph /  1.6km/h 92% 0in /  0.0mm 0 W/m2
06:04 53.4 °F /  11.9 °C 51.1 °F /  10.6 °C 30.2in /  1024.0hPa Calm     92% 0in /  0.0mm 0 W/m2
06:09 53.2 °F /  11.8 °C 50.9 °F /  10.5 °C 30.2in /  1024.0hPa Calm   1mph /  1.6km/h 92% 0in /  0.0mm 0 W/m2
06:29 53.2 °F /  11.8 °C 50.9 °F /  10.5 °C 30.2in /  1024.0hPa Calm   2mph /  3.2km/h 92% 0in /  0.0mm 0 W/m2
06:34 53.2 °F /  11.8 °C 50.9 °F /  10.5 °C 30.2in /  1024.0hPa NNE 4mph /  6.4km/h 4mph /  6.4km/h 92% 0in /  0.0mm 0 W/m2
06:39 53.2 °F /  11.8 °C 50.9 °F /  10.5 °C 30.2in /  1024.0hPa NNW 0.9mph /  1.4km/h 2mph /  3.2km/h 92% 0in /  0.0mm 0 W/m2
06:44 53.2 °F /  11.8 °C 50.9 °F /  10.5 °C 30.2in /  1024.0hPa Calm   2mph /  3.2km/h 92% 0in /  0.0mm 0 W/m2
06:49 53.2 °F /  11.8 °C 50.9 °F /  10.5 °C 30.2in /  1024.0hPa NE 2.9mph /  4.7km/h 3mph /  4.8km/h 92% 0in /  0.0mm 0 W/m2
06:54 53.1 °F /  11.7 °C 50.7 °F /  10.4 °C 30.2in /  1024.0hPa Calm   2mph /  3.2km/h 92% 0in /  0.0mm 0 W/m2
06:59 53.1 °F /  11.7 °C 50.7 °F /  10.4 °C 30.2in /  1024.0hPa Calm   2mph /  3.2km/h 92% 0in /  0.0mm 5 W/m2
07:04 53.1 °F /  11.7 °C 50.7 °F /  10.4 °C 30.2in /  1024.0hPa ENE 0.9mph /  1.4km/h 1mph /  1.6km/h 92% 0in /  0.0mm 9 W/m2
07:09 53.1 °F /  11.7 °C 50.7 °F /  10.4 °C 30.2in /  1024.0hPa Calm   2mph /  3.2km/h 92% 0in /  0.0mm 11 W/m2
07:14 53.1 °F /  11.7 °C 50.7 °F /  10.4 °C 30.2in /  1024.0hPa Calm   1mph /  1.6km/h 92% 0in /  0.0mm 14 W/m2
07:19 53.1 °F /  11.7 °C 50.7 °F /  10.4 °C 30.2in /  1024.0hPa Calm   2mph /  3.2km/h 92% 0in /  0.0mm 16 W/m2
07:24 53.1 °F /  11.7 °C 50.7 °F /  10.4 °C 30.2in /  1024.0hPa Calm   1mph /  1.6km/h 92% 0in /  0.0mm 18 W/m2
07:29 53.1 °F /  11.7 °C 50.7 °F /  10.4 °C 30.2in /  1024.0hPa Calm   1mph /  1.6km/h 92% 0in /  0.0mm 21 W/m2
07:32 53.1 °F /  11.7 °C 50.7 °F /  10.4 °C 30.2in /  1024.0hPa Calm     92% 0in /  0.0mm 23 W/m2
07:38 53.2 °F /  11.8 °C 50.9 °F /  10.5 °C 30.2in /  1024.0hPa Calm   1mph /  1.6km/h 92% 0in /  0.0mm 25 W/m2
07:43 53.2 °F /  11.8 °C 50.9 °F /  10.5 °C 30.2in /  1024.0hPa SSW 0.9mph /  1.4km/h 1mph /  1.6km/h 92% 0in /  0.0mm 26 W/m2
07:48 53.2 °F /  11.8 °C 50.9 °F /  10.5 °C 30.2in /  1024.0hPa WNW 0.9mph /  1.4km/h 2mph /  3.2km/h 92% 0in /  0.0mm 30 W/m2
07:53 53.2 °F /  11.8 °C 50.9 °F /  10.5 °C 30.2in /  1024.0hPa Calm   2mph /  3.2km/h 92% 0in /  0.0mm 32 W/m2
07:58 53.4 °F /  11.9 °C 51.1 °F /  10.6 °C 30.2in /  1024.0hPa WNW 2mph /  3.2km/h 3mph /  4.8km/h 92% 0in /  0.0mm 33 W/m2
08:03 53.6 °F /  12 °C 51.3 °F /  10.7 °C 30.2in /  1024.0hPa NNE 0.9mph /  1.4km/h 3mph /  4.8km/h 92% 0in /  0.0mm 35 W/m2
08:08 53.8 °F /  12.1 °C 51.4 °F /  10.8 °C 30.2in /  1024.0hPa Calm   1mph /  1.6km/h 92% 0in /  0.0mm 37 W/m2
08:13 53.8 °F /  12.1 °C 51.4 °F /  10.8 °C 30.2in /  1024.0hPa NNW 0.9mph /  1.4km/h 3mph /  4.8km/h 92% 0in /  0.0mm 42 W/m2
08:18 54 °F /  12.2 °C 51.6 °F /  10.9 °C 30.2in /  1024.0hPa Calm     92% 0in /  0.0mm 76 W/m2
08:23 54.1 °F /  12.3 °C 51.8 °F /  11 °C 30.2in /  1024.0hPa NW 2mph /  3.2km/h 4mph /  6.4km/h 92% 0in /  0.0mm 120 W/m2
08:28 54.3 °F /  12.4 °C 51.8 °F /  11 °C 30.2in /  1024.0hPa Calm   1mph /  1.6km/h 91% 0in /  0.0mm 144 W/m2
08:33 54.7 °F /  12.6 °C 52.2 °F /  11.2 °C 30.2in /  1024.0hPa NE 0.9mph /  1.4km/h 4mph /  6.4km/h 91% 0in /  0.0mm 162 W/m2
08:38 55 °F /  12.8 °C 52.5 °F /  11.4 °C 30.2in /  1024.0hPa North 2mph /  3.2km/h 2mph /  3.2km/h 91% 0in /  0.0mm 176 W/m2
08:43 55.2 °F /  12.9 °C 52.3 °F /  11.3 °C 30.2in /  1024.0hPa NE 2mph /  3.2km/h 4mph /  6.4km/h 90% 0in /  0.0mm 193 W/m2
08:48 55.6 °F /  13.1 °C 52.7 °F /  11.5 °C 30.2in /  1024.0hPa Calm   3mph /  4.8km/h 90% 0in /  0.0mm 213 W/m2
08:53 55.9 °F /  13.3 °C 52.7 °F /  11.5 °C 30.2in /  1024.0hPa NW 0.9mph /  1.4km/h 3mph /  4.8km/h 89% 0in /  0.0mm 223 W/m2
08:58 56.1 °F /  13.4 °C 52.9 °F /  11.6 °C 30.2in /  1024.0hPa Calm   4mph /  6.4km/h 89% 0in /  0.0mm 237 W/m2
09:03 56.5 °F /  13.6 °C 52.9 °F /  11.6 °C 30.2in /  1024.0hPa SE 2mph /  3.2km/h 4mph /  6.4km/h 88% 0in /  0.0mm 253 W/m2
09:08 56.8 °F /  13.8 °C 53.1 °F /  11.7 °C 30.2in /  1024.0hPa NE 2mph /  3.2km/h 2mph /  3.2km/h 87% 0in /  0.0mm 81 W/m2
09:13 57 °F /  13.9 °C 53.2 °F /  11.8 °C 30.2in /  1024.0hPa Calm   3mph /  4.8km/h 87% 0in /  0.0mm 54 W/m2
09:18 57.2 °F /  14 °C 53.1 °F /  11.7 °C 30.2in /  1024.0hPa ENE 2mph /  3.2km/h 6mph /  9.7km/h 86% 0in /  0.0mm 295 W/m2
09:23 57.6 °F /  14.2 °C 53.4 °F /  11.9 °C 30.2in /  1024.0hPa ENE 2mph /  3.2km/h 4mph /  6.4km/h 86% 0in /  0.0mm 311 W/m2
09:28 57.7 °F /  14.3 °C 53.6 °F /  12 °C 30.2in /  1024.0hPa ENE 2mph /  3.2km/h 5mph /  8km/h 86% 0in /  0.0mm 332 W/m2
09:33 58.3 °F /  14.6 °C 53.8 °F /  12.1 °C 30.2in /  1024.0hPa Calm   4mph /  6.4km/h 85% 0in /  0.0mm 346 W/m2
09:38 58.8 °F /  14.9 °C 54 °F /  12.2 °C 30.2in /  1024.0hPa NNE 0.9mph /  1.4km/h 3mph /  4.8km/h 84% 0in /  0.0mm 359 W/m2
09:43 59.4 °F /  15.2 °C 54.5 °F /  12.5 °C 30.2in /  1024.0hPa East 0.9mph /  1.4km/h 5mph /  8km/h 84% 0in /  0.0mm 374 W/m2
09:48 59.7 °F /  15.4 °C 54.5 °F /  12.5 °C 30.2in /  1024.0hPa East 4.9mph /  7.9km/h 8mph /  12.9km/h 83% 0in /  0.0mm 388 W/m2
09:53 60.1 °F /  15.6 °C 54.5 °F /  12.5 °C 30.2in /  1024.0hPa East 2.9mph /  4.7km/h 3mph /  4.8km/h 82% 0in /  0.0mm 403 W/m2
09:58 60.4 °F /  15.8 °C 54.3 °F /  12.4 °C 30.2in /  1024.0hPa ENE 2mph /  3.2km/h 4mph /  6.4km/h 80% 0in /  0.0mm 417 W/m2
10:03 61 °F /  16.1 °C 54.7 °F /  12.6 °C 30.2in /  1024.0hPa NE 0.9mph /  1.4km/h 5mph /  8km/h 80% 0in /  0.0mm 429 W/m2
10:08 61.2 °F /  16.2 °C 54.7 °F /  12.6 °C 30.2in /  1024.0hPa SE 4mph /  6.4km/h 9mph /  14.5km/h 79% 0in /  0.0mm 443 W/m2
10:13 61.5 °F /  16.4 °C 54.9 °F /  12.7 °C 30.2in /  1024.0hPa SE 4.9mph /  7.9km/h 7mph /  11.3km/h 79% 0in /  0.0mm 454 W/m2
10:18 61.9 °F /  16.6 °C 54.9 °F /  12.7 °C 30.2in /  1024.0hPa ENE 2mph /  3.2km/h 8mph /  12.9km/h 78% 0in /  0.0mm 468 W/m2
10:23 61.9 °F /  16.6 °C 54.9 °F /  12.7 °C 30.2in /  1024.0hPa ENE 2mph /  3.2km/h 3mph /  4.8km/h 78% 0in /  0.0mm 478 W/m2
10:28 62.2 °F /  16.8 °C 55.2 °F /  12.9 °C 30.2in /  1024.0hPa East 4mph /  6.4km/h 4mph /  6.4km/h 78% 0in /  0.0mm 490 W/m2
10:33 62.8 °F /  17.1 °C 55.4 °F /  13 °C 30.2in /  1024.0hPa NE 0.9mph /  1.4km/h 3mph /  4.8km/h 77% 0in /  0.0mm 504 W/m2
10:38 63 °F /  17.2 °C 55.6 °F /  13.1 °C 30.2in /  1024.0hPa WNW 2.9mph /  4.7km/h 4mph /  6.4km/h 77% 0in /  0.0mm 517 W/m2
10:43 63.1 °F /  17.3 °C 55.4 °F /  13 °C 30.2in /  1024.0hPa East 2.9mph /  4.7km/h 4mph /  6.4km/h 76% 0in /  0.0mm 529 W/m2
10:48 63.7 °F /  17.6 °C 55.9 °F /  13.3 °C 30.2in /  1024.0hPa NE 0.9mph /  1.4km/h 9mph /  14.5km/h 76% 0in /  0.0mm 540 W/m2
10:53 64 °F /  17.8 °C 55.9 °F /  13.3 °C 30.2in /  1024.0hPa East 0.9mph /  1.4km/h 3mph /  4.8km/h 75% 0in /  0.0mm 554 W/m2
10:58 64.6 °F /  18.1 °C 56.5 °F /  13.6 °C 30.2in /  1024.0hPa ESE 2mph /  3.2km/h 9mph /  14.5km/h 75% 0in /  0.0mm 566 W/m2
11:03 64.9 °F /  18.3 °C 56.5 °F /  13.6 °C 30.2in /  1024.0hPa East 0.9mph /  1.4km/h 4mph /  6.4km/h 74% 0in /  0.0mm 573 W/m2
11:08 65.5 °F /  18.6 °C 56.3 °F /  13.5 °C 30.2in /  1024.0hPa ENE 2mph /  3.2km/h 6mph /  9.7km/h 72% 0in /  0.0mm 584 W/m2
11:13 65.7 °F /  18.7 °C 56.3 °F /  13.5 °C 30.2in /  1024.0hPa ENE 2mph /  3.2km/h 5mph /  8km/h 72% 0in /  0.0mm 594 W/m2
11:18 66 °F /  18.9 °C 56.7 °F /  13.7 °C 30.2in /  1023.7hPa ENE 4mph /  6.4km/h 8mph /  12.9km/h 72% 0in /  0.0mm 605 W/m2
11:23 66.6 °F /  19.2 °C 57.6 °F /  14.2 °C 30.2in /  1023.7hPa ENE 2mph /  3.2km/h 5mph /  8km/h 73% 0in /  0.0mm 615 W/m2
11:28 66.7 °F /  19.3 °C 57 °F /  13.9 °C 30.2in /  1023.4hPa East 2mph /  3.2km/h 8mph /  12.9km/h 71% 0in /  0.0mm 624 W/m2
11:33 66.9 °F /  19.4 °C 56.8 °F /  13.8 °C 30.2in /  1023.4hPa SE 2mph /  3.2km/h 5mph /  8km/h 70% 0in /  0.0mm 633 W/m2
11:38 67.3 °F /  19.6 °C 57.2 °F /  14 °C 30.2in /  1023.4hPa East 4mph /  6.4km/h 7mph /  11.3km/h 70% 0in /  0.0mm 642 W/m2
11:43 67.6 °F /  19.8 °C 57 °F /  13.9 °C 30.2in /  1023.4hPa East 2.9mph /  4.7km/h 7mph /  11.3km/h 69% 0in /  0.0mm 645 W/m2
11:48 67.8 °F /  19.9 °C 57.7 °F /  14.3 °C 30.2in /  1023.4hPa NE 2mph /  3.2km/h 4mph /  6.4km/h 70% 0in /  0.0mm 650 W/m2
11:53 68.5 °F /  20.3 °C 57.9 °F /  14.4 °C 30.2in /  1023.4hPa North 0.9mph /  1.4km/h 5mph /  8km/h 69% 0in /  0.0mm 664 W/m2
11:58 68.9 °F /  20.5 °C 57.9 °F /  14.4 °C 30.2in /  1023.4hPa ENE 0.9mph /  1.4km/h 10mph /  16.1km/h 68% 0in /  0.0mm 670 W/m2
12:03 69.1 °F /  20.6 °C 57.2 °F /  14 °C 30.2in /  1023.0hPa ENE 4mph /  6.4km/h 7mph /  11.3km/h 66% 0in /  0.0mm 680 W/m2
12:08 69.8 °F /  21 °C 57 °F /  13.9 °C 30.2in /  1023.0hPa NNE 2.9mph /  4.7km/h 14mph /  22.5km/h 64% 0in /  0.0mm 679 W/m2
12:13 70.3 °F /  21.3 °C 57.2 °F /  14 °C 30.2in /  1023.0hPa NE 2.9mph /  4.7km/h 8mph /  12.9km/h 63% 0in /  0.0mm 694 W/m2
12:18 71.1 °F /  21.7 °C 56.5 °F /  13.6 °C 30.2in /  1023.0hPa SE 2mph /  3.2km/h 14mph /  22.5km/h 60% 0in /  0.0mm 701 W/m2
12:23 71.8 °F /  22.1 °C 56.7 °F /  13.7 °C 30.2in /  1023.0hPa ESE 2mph /  3.2km/h 7mph /  11.3km/h 59% 0in /  0.0mm 710 W/m2
12:28 72.1 °F /  22.3 °C 56.1 °F /  13.4 °C 30.2in /  1022.7hPa ENE 2.9mph /  4.7km/h 8mph /  12.9km/h 57% 0in /  0.0mm 717 W/m2
12:33 72.3 °F /  22.4 °C 56.3 °F /  13.5 °C 30.2in /  1022.7hPa East 10.1mph /  16.3km/h 12mph /  19.3km/h 57% 0in /  0.0mm 717 W/m2
12:38 72.3 °F /  22.4 °C 55.8 °F /  13.2 °C 30.2in /  1022.7hPa NE 2mph /  3.2km/h 7mph /  11.3km/h 56% 0in /  0.0mm 721 W/m2
12:43 72.3 °F /  22.4 °C 56.7 °F /  13.7 °C 30.2in /  1022.7hPa ENE 4mph /  6.4km/h 7mph /  11.3km/h 58% 0in /  0.0mm 724 W/m2
12:48 72.3 °F /  22.4 °C 56.3 °F /  13.5 °C 30.2in /  1022.7hPa East 2.9mph /  4.7km/h 8mph /  12.9km/h 57% 0in /  0.0mm 728 W/m2
12:53 72.7 °F /  22.6 °C 56.1 °F /  13.4 °C 30.2in /  1022.7hPa SE 2.9mph /  4.7km/h 7mph /  11.3km/h 56% 0in /  0.0mm 731 W/m2
12:58 73 °F /  22.8 °C 56.5 °F /  13.6 °C 30.2in /  1022.7hPa East 0.9mph /  1.4km/h 7mph /  11.3km/h 56% 0in /  0.0mm 737 W/m2
13:03 73.4 °F /  23 °C 56.7 °F /  13.7 °C 30.2in /  1022.7hPa East 2.9mph /  4.7km/h 7mph /  11.3km/h 56% 0in /  0.0mm 737 W/m2
13:08 73.2 °F /  22.9 °C 55.6 °F /  13.1 °C 30.2in /  1022.7hPa SE 2.9mph /  4.7km/h 10mph /  16.1km/h 54% 0in /  0.0mm 744 W/m2
13:13 73 °F /  22.8 °C 55.9 °F /  13.3 °C 30.2in /  1022.7hPa ESE 8.1mph /  13km/h 8mph /  12.9km/h 55% 0in /  0.0mm 737 W/m2
13:18 73.4 °F /  23 °C 55.8 °F /  13.2 °C 30.2in /  1022.7hPa East 4mph /  6.4km/h 6mph /  9.7km/h 54% 0in /  0.0mm 744 W/m2
13:23 73.6 °F /  23.1 °C 54.9 °F /  12.7 °C 30.2in /  1022.7hPa ENE 2mph /  3.2km/h 10mph /  16.1km/h 52% 0in /  0.0mm 749 W/m2
13:28 73.8 °F /  23.2 °C 55.6 °F /  13.1 °C 30.2in /  1022.7hPa SSE 4mph /  6.4km/h 5mph /  8km/h 53% 0in /  0.0mm 745 W/m2
13:33 73.9 °F /  23.3 °C 55.2 °F /  12.9 °C 30.2in /  1022.7hPa SE 2.9mph /  4.7km/h 8mph /  12.9km/h 52% 0in /  0.0mm 754 W/m2
13:39 74.1 °F /  23.4 °C 56.5 °F /  13.6 °C 30.2in /  1022.7hPa SE 6.9mph /  11.1km/h 7mph /  11.3km/h 54% 0in /  0.0mm 754 W/m2
13:44 74.5 °F /  23.6 °C 55.8 °F /  13.2 °C 30.2in /  1022.7hPa ESE 2.9mph /  4.7km/h 8mph /  12.9km/h 52% 0in /  0.0mm 752 W/m2
13:49 74.8 °F /  23.8 °C 56.1 °F /  13.4 °C 30.2in /  1022.7hPa ENE 4mph /  6.4km/h 8mph /  12.9km/h 52% 0in /  0.0mm 751 W/m2
13:54 74.8 °F /  23.8 °C 56.1 °F /  13.4 °C 30.2in /  1022.7hPa SSW 4mph /  6.4km/h 7mph /  11.3km/h 52% 0in /  0.0mm 751 W/m2
13:59 74.7 °F /  23.7 °C 55.9 °F /  13.3 °C 30.2in /  1022.4hPa East 2mph /  3.2km/h 10mph /  16.1km/h 52% 0in /  0.0mm 754 W/m2
14:04 74.7 °F /  23.7 °C 54.9 °F /  12.7 °C 30.2in /  1022.7hPa ENE 4mph /  6.4km/h 12mph /  19.3km/h 50% 0in /  0.0mm 751 W/m2
14:09 74.5 °F /  23.6 °C 55.2 °F /  12.9 °C 30.2in /  1022.4hPa SW 0.9mph /  1.4km/h 4mph /  6.4km/h 51% 0in /  0.0mm 754 W/m2
14:14 74.5 °F /  23.6 °C 55.8 °F /  13.2 °C 30.2in /  1022.4hPa East 2mph /  3.2km/h 12mph /  19.3km/h 52% 0in /  0.0mm 751 W/m2
14:19 74.5 °F /  23.6 °C 55.8 °F /  13.2 °C 30.2in /  1022.4hPa NE 2.9mph /  4.7km/h 9mph /  14.5km/h 52% 0in /  0.0mm 751 W/m2
14:24 74.7 °F /  23.7 °C 56.8 °F /  13.8 °C 30.2in /  1022.4hPa ESE 4mph /  6.4km/h 4mph /  6.4km/h 54% 0in /  0.0mm 747 W/m2
14:29 75 °F /  23.9 °C 56.1 °F /  13.4 °C 30.2in /  1022.7hPa SE 4mph /  6.4km/h 7mph /  11.3km/h 52% 0in /  0.0mm 744 W/m2
14:34 75.4 °F /  24.1 °C 57 °F /  13.9 °C 30.2in /  1022.4hPa NE 2.9mph /  4.7km/h 8mph /  12.9km/h 53% 0in /  0.0mm 738 W/m2
14:39 75.4 °F /  24.1 °C 56.5 °F /  13.6 °C 30.2in /  1022.4hPa NNW 2mph /  3.2km/h 7mph /  11.3km/h 52% 0in /  0.0mm 737 W/m2
14:44 75.6 °F /  24.2 °C 57.2 °F /  14 °C 30.2in /  1022.4hPa ENE 2mph /  3.2km/h 3mph /  4.8km/h 53% 0in /  0.0mm 733 W/m2
14:49 75.7 °F /  24.3 °C 55.8 °F /  13.2 °C 30.2in /  1022.4hPa SSE 2mph /  3.2km/h 9mph /  14.5km/h 50% 0in /  0.0mm 737 W/m2
14:54 75.7 °F /  24.3 °C 56.3 °F /  13.5 °C 30.2in /  1022.4hPa NNE 0.9mph /  1.4km/h 5mph /  8km/h 51% 0in /  0.0mm 714 W/m2
14:59 75.9 °F /  24.4 °C 57 °F /  13.9 °C 30.2in /  1022.4hPa SE 4mph /  6.4km/h 9mph /  14.5km/h 52% 0in /  0.0mm 715 W/m2
15:04 75.7 °F /  24.3 °C 56.8 °F /  13.8 °C 30.2in /  1022.4hPa ENE 4mph /  6.4km/h 10mph /  16.1km/h 52% 0in /  0.0mm 719 W/m2
15:09 75.7 °F /  24.3 °C 56.3 °F /  13.5 °C 30.2in /  1022.4hPa East 4mph /  6.4km/h 6mph /  9.7km/h 51% 0in /  0.0mm 710 W/m2
15:14 75.6 °F /  24.2 °C 56.7 °F /  13.7 °C 30.2in /  1022.4hPa East 0.9mph /  1.4km/h 7mph /  11.3km/h 52% 0in /  0.0mm 694 W/m2
15:19 75.6 °F /  24.2 °C 56.7 °F /  13.7 °C 30.2in /  1022.4hPa SE 2mph /  3.2km/h 7mph /  11.3km/h 52% 0in /  0.0mm 693 W/m2
15:24 75.6 °F /  24.2 °C 56.1 °F /  13.4 °C 30.2in /  1022.0hPa North 2.9mph /  4.7km/h 12mph /  19.3km/h 51% 0in /  0.0mm 691 W/m2
15:29 75.7 °F /  24.3 °C 57.4 °F /  14.1 °C 30.2in /  1022.0hPa NE 4mph /  6.4km/h 7mph /  11.3km/h 53% 0in /  0.0mm 680 W/m2
15:34 75.7 °F /  24.3 °C 56.8 °F /  13.8 °C 30.2in /  1022.0hPa ENE 2.9mph /  4.7km/h 12mph /  19.3km/h 52% 0in /  0.0mm 668 W/m2
15:39 75.7 °F /  24.3 °C 57.4 °F /  14.1 °C 30.2in /  1022.0hPa NE 6mph /  9.7km/h 7mph /  11.3km/h 53% 0in /  0.0mm 552 W/m2
15:44 75.6 °F /  24.2 °C 56.7 °F /  13.7 °C 30.2in /  1022.0hPa ENE 4.9mph /  7.9km/h 8mph /  12.9km/h 52% 0in /  0.0mm 652 W/m2
15:49 75.6 °F /  24.2 °C 57.2 °F /  14 °C 30.2in /  1022.0hPa East 6.9mph /  11.1km/h 9mph /  14.5km/h 53% 0in /  0.0mm 640 W/m2
15:54 75.7 °F /  24.3 °C 57.4 °F /  14.1 °C 30.2in /  1021.7hPa East 4.9mph /  7.9km/h 8mph /  12.9km/h 53% 0in /  0.0mm 635 W/m2
15:59 75.6 °F /  24.2 °C 56.7 °F /  13.7 °C 30.2in /  1021.7hPa NE 2.9mph /  4.7km/h 8mph /  12.9km/h 52% 0in /  0.0mm 615 W/m2
16:04 75.6 °F /  24.2 °C 56.7 °F /  13.7 °C 30.2in /  1021.7hPa ENE 4mph /  6.4km/h 8mph /  12.9km/h 52% 0in /  0.0mm 619 W/m2
16:09 75.7 °F /  24.3 °C 56.8 °F /  13.8 °C 30.2in /  1021.7hPa ESE 4mph /  6.4km/h 8mph /  12.9km/h 52% 0in /  0.0mm 606 W/m2
16:14 75.9 °F /  24.4 °C 57.6 °F /  14.2 °C 30.2in /  1021.7hPa NNE 4.9mph /  7.9km/h 5mph /  8km/h 53% 0in /  0.0mm 601 W/m2
16:19 76.1 °F /  24.5 °C 57.2 °F /  14 °C 30.2in /  1021.7hPa SSE 2.9mph /  4.7km/h 9mph /  14.5km/h 52% 0in /  0.0mm 589 W/m2
16:24 76.3 °F /  24.6 °C 57.4 °F /  14.1 °C 30.2in /  1021.7hPa ENE 4mph /  6.4km/h 9mph /  14.5km/h 52% 0in /  0.0mm 580 W/m2
16:29 76.5 °F /  24.7 °C 57.6 °F /  14.2 °C 30.2in /  1021.7hPa ESE 2mph /  3.2km/h 6mph /  9.7km/h 52% 0in /  0.0mm 571 W/m2
16:34 76.6 °F /  24.8 °C 57.2 °F /  14 °C 30.2in /  1021.3hPa ENE 2mph /  3.2km/h 4mph /  6.4km/h 51% 0in /  0.0mm 559 W/m2
16:39 76.8 °F /  24.9 °C 56.8 °F /  13.8 °C 30.2in /  1021.3hPa East 2.9mph /  4.7km/h 9mph /  14.5km/h 50% 0in /  0.0mm 555 W/m2
16:44 76.6 °F /  24.8 °C 56.1 °F /  13.4 °C 30.2in /  1021.3hPa ENE 2.9mph /  4.7km/h 8mph /  12.9km/h 49% 0in /  0.0mm 538 W/m2
16:49 76.6 °F /  24.8 °C 56.1 °F /  13.4 °C 30.2in /  1021.3hPa NE 2.9mph /  4.7km/h 8mph /  12.9km/h 49% 0in /  0.0mm 529 W/m2
16:54 76.6 °F /  24.8 °C 56.1 °F /  13.4 °C 30.2in /  1021.3hPa Calm   6mph /  9.7km/h 49% 0in /  0.0mm 517 W/m2
16:59 77.2 °F /  25.1 °C 57 °F /  13.9 °C 30.2in /  1021.3hPa ENE 2mph /  3.2km/h 8mph /  12.9km/h 50% 0in /  0.0mm 504 W/m2
17:04 76.8 °F /  24.9 °C 55.6 °F /  13.1 °C 30.2in /  1021.3hPa ENE 8.9mph /  14.3km/h 9mph /  14.5km/h 48% 0in /  0.0mm 489 W/m2
17:09 76.6 °F /  24.8 °C 56.1 °F /  13.4 °C 30.2in /  1021.3hPa SE 2.9mph /  4.7km/h 10mph /  16.1km/h 49% 0in /  0.0mm 480 W/m2
17:14 76.6 °F /  24.8 °C 55.4 °F /  13 °C 30.2in /  1021.3hPa East 2mph /  3.2km/h 6mph /  9.7km/h 48% 0in /  0.0mm 466 W/m2
17:19 76.8 °F /  24.9 °C 56.3 °F /  13.5 °C 30.2in /  1021.0hPa North 4mph /  6.4km/h 8mph /  12.9km/h 49% 0in /  0.0mm 452 W/m2
17:24 76.6 °F /  24.8 °C 55.4 °F /  13 °C 30.2in /  1021.0hPa NE 4mph /  6.4km/h 6mph /  9.7km/h 48% 0in /  0.0mm 446 W/m2
17:29 76.6 °F /  24.8 °C 55.4 °F /  13 °C 30.2in /  1021.3hPa ENE 0.9mph /  1.4km/h 8mph /  12.9km/h 48% 0in /  0.0mm 422 W/m2
17:34 76.8 °F /  24.9 °C 56.3 °F /  13.5 °C 30.2in /  1021.0hPa ESE 6mph /  9.7km/h 7mph /  11.3km/h 49% 0in /  0.0mm 408 W/m2
17:39 76.8 °F /  24.9 °C 55 °F /  12.8 °C 30.2in /  1021.3hPa SE 4mph /  6.4km/h 7mph /  11.3km/h 47% 0in /  0.0mm 401 W/m2
17:44 76.6 °F /  24.8 °C 56.7 °F /  13.7 °C 30.2in /  1021.0hPa ESE 6mph /  9.7km/h 10mph /  16.1km/h 50% 0in /  0.0mm 385 W/m2
17:49 76.6 °F /  24.8 °C 55.4 °F /  13 °C 30.2in /  1021.0hPa East 0.9mph /  1.4km/h 10mph /  16.1km/h 48% 0in /  0.0mm 371 W/m2
17:54 76.5 °F /  24.7 °C 55.4 °F /  13 °C 30.2in /  1021.0hPa ENE 6mph /  9.7km/h 9mph /  14.5km/h 48% 0in /  0.0mm 360 W/m2
17:59 76.5 °F /  24.7 °C 55.4 °F /  13 °C 30.2in /  1021.0hPa ENE 2mph /  3.2km/h 10mph /  16.1km/h 48% 0in /  0.0mm 343 W/m2
18:04 76.5 °F /  24.7 °C 55.4 °F /  13 °C 30.2in /  1021.0hPa East 2mph /  3.2km/h 5mph /  8km/h 48% 0in /  0.0mm 329 W/m2
18:09 76.3 °F /  24.6 °C 55.2 °F /  12.9 °C 30.2in /  1021.0hPa NE 2.9mph /  4.7km/h 10mph /  16.1km/h 48% 0in /  0.0mm 316 W/m2
18:14 75.9 °F /  24.4 °C 55.4 °F /  13 °C 30.2in /  1021.0hPa ESE 2mph /  3.2km/h 7mph /  11.3km/h 49% 0in /  0.0mm 299 W/m2
18:19 75.9 °F /  24.4 °C 55.9 °F /  13.3 °C 30.2in /  1021.0hPa ESE 2mph /  3.2km/h 9mph /  14.5km/h 50% 0in /  0.0mm 285 W/m2
18:24 75.9 °F /  24.4 °C 54.9 °F /  12.7 °C 30.1in /  1020.7hPa SSE 2mph /  3.2km/h 9mph /  14.5km/h 48% 0in /  0.0mm 271 W/m2
18:29 75.6 °F /  24.2 °C 55 °F /  12.8 °C 30.1in /  1020.7hPa East 6mph /  9.7km/h 6mph /  9.7km/h 49% 0in /  0.0mm 258 W/m2
18:34 75.4 °F /  24.1 °C 55.4 °F /  13 °C 30.1in /  1020.7hPa ESE 2mph /  3.2km/h 4mph /  6.4km/h 50% 0in /  0.0mm 241 W/m2
18:39 75.2 °F /  24 °C 55.2 °F /  12.9 °C 30.1in /  1020.7hPa East 2.9mph /  4.7km/h 9mph /  14.5km/h 50% 0in /  0.0mm 227 W/m2
18:44 75 °F /  23.9 °C 55 °F /  12.8 °C 30.1in /  1020.7hPa SE 2mph /  3.2km/h 11mph /  17.7km/h 50% 0in /  0.0mm 211 W/m2
18:49 74.8 °F /  23.8 °C 55.6 °F /  13.1 °C 30.1in /  1020.7hPa East 0.9mph /  1.4km/h 5mph /  8km/h 51% 0in /  0.0mm 197 W/m2
18:54 74.7 °F /  23.7 °C 55.9 °F /  13.3 °C 30.1in /  1020.7hPa ENE 4.9mph /  7.9km/h 12mph /  19.3km/h 52% 0in /  0.0mm 183 W/m2
18:59 74.5 °F /  23.6 °C 55.8 °F /  13.2 °C 30.1in /  1020.7hPa East 4mph /  6.4km/h 5mph /  8km/h 52% 0in /  0.0mm 169 W/m2
19:04 74.1 °F /  23.4 °C 55.4 °F /  13 °C 30.1in /  1020.3hPa East 0.9mph /  1.4km/h 12mph /  19.3km/h 52% 0in /  0.0mm 153 W/m2
19:09 74.1 °F /  23.4 °C 55.9 °F /  13.3 °C 30.1in /  1020.7hPa NE 2.9mph /  4.7km/h 5mph /  8km/h 53% 0in /  0.0mm 139 W/m2
19:14 73.9 °F /  23.3 °C 56.3 °F /  13.5 °C 30.1in /  1020.3hPa Calm   5mph /  8km/h 54% 0in /  0.0mm 120 W/m2
19:19 73.8 °F /  23.2 °C 56.1 °F /  13.4 °C 30.1in /  1020.3hPa SE 2.9mph /  4.7km/h 6mph /  9.7km/h 54% 0in /  0.0mm 100 W/m2
19:24 73.6 °F /  23.1 °C 55.9 °F /  13.3 °C 30.1in /  1020.3hPa SE 4.9mph /  7.9km/h 5mph /  8km/h 54% 0in /  0.0mm 86 W/m2
19:29 73.2 °F /  22.9 °C 55.6 °F /  13.1 °C 30.1in /  1020.3hPa NE 2.9mph /  4.7km/h 6mph /  9.7km/h 54% 0in /  0.0mm 53 W/m2
19:34 72.9 °F /  22.7 °C 55.2 °F /  12.9 °C 30.1in /  1020.3hPa ENE 0.9mph /  1.4km/h 9mph /  14.5km/h 54% 0in /  0.0mm 26 W/m2
19:39 72.7 °F /  22.6 °C 55.6 °F /  13.1 °C 30.1in /  1020.3hPa East 4mph /  6.4km/h 8mph /  12.9km/h 55% 0in /  0.0mm 21 W/m2
19:44 72.1 °F /  22.3 °C 55 °F /  12.8 °C 30.1in /  1020.3hPa East 6mph /  9.7km/h 11mph /  17.7km/h 55% 0in /  0.0mm 19 W/m2
19:49 72 °F /  22.2 °C 55.9 °F /  13.3 °C 30.1in /  1020.3hPa ESE 4mph /  6.4km/h 4mph /  6.4km/h 57% 0in /  0.0mm 16 W/m2
19:54 71.4 °F /  21.9 °C 55.4 °F /  13 °C 30.1in /  1020.3hPa ESE 0.9mph /  1.4km/h 11mph /  17.7km/h 57% 0in /  0.0mm 14 W/m2
19:59 71.2 °F /  21.8 °C 56.1 °F /  13.4 °C 30.1in /  1020.3hPa ENE 0.9mph /  1.4km/h 2mph /  3.2km/h 59% 0in /  0.0mm 12 W/m2
20:04 70.5 °F /  21.4 °C 55.9 °F /  13.3 °C 30.1in /  1020.3hPa SSE 0.9mph /  1.4km/h 3mph /  4.8km/h 60% 0in /  0.0mm 11 W/m2
20:09 70 °F /  21.1 °C 55.4 °F /  13 °C 30.1in /  1020.3hPa Calm   3mph /  4.8km/h 60% 0in /  0.0mm 7 W/m2
20:14 69.4 °F /  20.8 °C 55.9 °F /  13.3 °C 30.1in /  1020.3hPa East 0.9mph /  1.4km/h 2mph /  3.2km/h 62% 0in /  0.0mm 5 W/m2
20:19 68.9 °F /  20.5 °C 55.8 °F /  13.2 °C 30.1in /  1020.3hPa Calm   5mph /  8km/h 63% 0in /  0.0mm 0 W/m2
20:24 68.4 °F /  20.2 °C 55.8 °F /  13.2 °C 30.1in /  1020.3hPa Calm   2mph /  3.2km/h 64% 0in /  0.0mm 0 W/m2
20:29 67.8 °F /  19.9 °C 55.6 °F /  13.1 °C 30.1in /  1020.3hPa Calm   1mph /  1.6km/h 65% 0in /  0.0mm 0 W/m2
20:34 67.5 °F /  19.7 °C 55.8 °F /  13.2 °C 30.1in /  1020.3hPa ENE 0.9mph /  1.4km/h 1mph /  1.6km/h 66% 0in /  0.0mm 0 W/m2
20:39 67.1 °F /  19.5 °C 55.8 °F /  13.2 °C 30.1in /  1020.3hPa Calm   1mph /  1.6km/h 67% 0in /  0.0mm 0 W/m2
20:44 66.7 °F /  19.3 °C 55.8 °F /  13.2 °C 30.1in /  1020.7hPa Calm   1mph /  1.6km/h 68% 0in /  0.0mm 0 W/m2
20:49 66.4 °F /  19.1 °C 55.9 °F /  13.3 °C 30.1in /  1020.3hPa Calm   1mph /  1.6km/h 69% 0in /  0.0mm 0 W/m2
20:54 65.8 °F /  18.8 °C 55.4 °F /  13 °C 30.1in /  1020.3hPa Calm     69% 0in /  0.0mm 0 W/m2
20:59 65.5 °F /  18.6 °C 55.4 °F /  13 °C 30.1in /  1020.7hPa Calm   1mph /  1.6km/h 70% 0in /  0.0mm 0 W/m2
21:04 65.1 °F /  18.4 °C 55.4 °F /  13 °C 30.1in /  1020.7hPa ESE 0.9mph /  1.4km/h 1mph /  1.6km/h 71% 0in /  0.0mm 0 W/m2
21:09 64.8 °F /  18.2 °C 55.6 °F /  13.1 °C 30.1in /  1020.7hPa Calm   2mph /  3.2km/h 72% 0in /  0.0mm 0 W/m2
21:14 64.2 °F /  17.9 °C 55 °F /  12.8 °C 30.1in /  1020.7hPa Calm   1mph /  1.6km/h 72% 0in /  0.0mm 0 W/m2
21:19 64 °F /  17.8 °C 55.2 °F /  12.9 °C 30.1in /  1020.7hPa Calm   2mph /  3.2km/h 73% 0in /  0.0mm 0 W/m2
21:25 63.9 °F /  17.7 °C 55.4 °F /  13 °C 30.1in /  1020.7hPa Calm     74% 0in /  0.0mm 0 W/m2
21:30 63.5 °F /  17.5 °C 55.4 °F /  13 °C 30.1in /  1020.7hPa SE 0.9mph /  1.4km/h 2mph /  3.2km/h 75% 0in /  0.0mm 0 W/m2
21:35 63.3 °F /  17.4 °C 55.2 °F /  12.9 °C 30.1in /  1020.7hPa SE 0.9mph /  1.4km/h 1mph /  1.6km/h 75% 0in /  0.0mm 0 W/m2
21:40 63.3 °F /  17.4 °C 55.2 °F /  12.9 °C 30.1in /  1020.7hPa Calm   2mph /  3.2km/h 75% 0in /  0.0mm 0 W/m2
21:45 63.1 °F /  17.3 °C 55.4 °F /  13 °C 30.1in /  1020.7hPa SE 0.9mph /  1.4km/h 1mph /  1.6km/h 76% 0in /  0.0mm 0 W/m2
21:50 63.1 °F /  17.3 °C 55.4 °F /  13 °C 30.1in /  1020.7hPa SE 0.9mph /  1.4km/h 2mph /  3.2km/h 76% 0in /  0.0mm 0 W/m2
21:55 63 °F /  17.2 °C 55.6 °F /  13.1 °C 30.1in /  1020.7hPa Calm   2mph /  3.2km/h 77% 0in /  0.0mm 0 W/m2
22:00 63 °F /  17.2 °C 55.6 °F /  13.1 °C 30.1in /  1020.7hPa SE 0.9mph /  1.4km/h 2mph /  3.2km/h 77% 0in /  0.0mm 0 W/m2
22:05 63 °F /  17.2 °C 55.6 °F /  13.1 °C 30.1in /  1020.7hPa Calm   1mph /  1.6km/h 77% 0in /  0.0mm 0 W/m2
22:10 63 °F /  17.2 °C 55.6 °F /  13.1 °C 30.1in /  1020.7hPa SSE 0.9mph /  1.4km/h 2mph /  3.2km/h 77% 0in /  0.0mm 0 W/m2
22:15 63.1 °F /  17.3 °C 55.8 °F /  13.2 °C 30.1in /  1020.7hPa SSE 0.9mph /  1.4km/h 1mph /  1.6km/h 77% 0in /  0.0mm 0 W/m2
22:20 63 °F /  17.2 °C 55.6 °F /  13.1 °C 30.1in /  1020.7hPa SSE 0.9mph /  1.4km/h 2mph /  3.2km/h 77% 0in /  0.0mm 0 W/m2
22:25 62.8 °F /  17.1 °C 55.8 °F /  13.2 °C 30.1in /  1020.7hPa Calm   2mph /  3.2km/h 78% 0in /  0.0mm 0 W/m2
22:30 62.4 °F /  16.9 °C 55.4 °F /  13 °C 30.1in /  1020.7hPa SSE 0.9mph /  1.4km/h 1mph /  1.6km/h 78% 0in /  0.0mm 0 W/m2
22:35 62.1 °F /  16.7 °C 55.4 °F /  13 °C 30.1in /  1020.7hPa Calm   3mph /  4.8km/h 79% 0in /  0.0mm 0 W/m2
22:40 61.9 °F /  16.6 °C 55.2 °F /  12.9 °C 30.1in /  1020.7hPa SSE 0.9mph /  1.4km/h 1mph /  1.6km/h 79% 0in /  0.0mm 0 W/m2
22:45 61.7 °F /  16.5 °C 55.4 °F /  13 °C 30.1in /  1020.7hPa SSE 2mph /  3.2km/h 2mph /  3.2km/h 80% 0in /  0.0mm 0 W/m2
22:50 61.3 °F /  16.3 °C 55 °F /  12.8 °C 30.1in /  1020.7hPa SSE 0.9mph /  1.4km/h 1mph /  1.6km/h 80% 0in /  0.0mm 0 W/m2
22:55 61.3 °F /  16.3 °C 55.4 °F /  13 °C 30.1in /  1020.7hPa SSE 0.9mph /  1.4km/h 4mph /  6.4km/h 81% 0in /  0.0mm 0 W/m2
23:00 61.3 °F /  16.3 °C 55.4 °F /  13 °C 30.1in /  1020.7hPa Calm   1mph /  1.6km/h 81% 0in /  0.0mm 0 W/m2
23:05 61.2 °F /  16.2 °C 55.2 °F /  12.9 °C 30.1in /  1020.7hPa Calm   3mph /  4.8km/h 81% 0in /  0.0mm 0 W/m2
23:10 61.2 °F /  16.2 °C 55.2 °F /  12.9 °C 30.1in /  1020.7hPa SSE 0.9mph /  1.4km/h 1mph /  1.6km/h 81% 0in /  0.0mm 0 W/m2
23:15 61 °F /  16.1 °C 55.4 °F /  13 °C 30.1in /  1020.7hPa SSE 0.9mph /  1.4km/h 2mph /  3.2km/h 82% 0in /  0.0mm 0 W/m2
23:20 60.8 °F /  16 °C 55.2 °F /  12.9 °C 30.1in /  1020.7hPa Calm   1mph /  1.6km/h 82% 0in /  0.0mm 0 W/m2
23:25 60.6 °F /  15.9 °C 55 °F /  12.8 °C 30.1in /  1020.7hPa SSE 0.9mph /  1.4km/h 2mph /  3.2km/h 82% 0in /  0.0mm 0 W/m2
23:30 60.6 °F /  15.9 °C 55 °F /  12.8 °C 30.1in /  1020.7hPa Calm   1mph /  1.6km/h 82% 0in /  0.0mm 0 W/m2
23:35 60.6 °F /  15.9 °C 55 °F /  12.8 °C 30.1in /  1020.7hPa Calm     82% 0in /  0.0mm 0 W/m2
23:40 60.6 °F /  15.9 °C 55 °F /  12.8 °C 30.1in /  1020.7hPa SSE 0.9mph /  1.4km/h 2mph /  3.2km/h 82% 0in /  0.0mm 0 W/m2
23:45 60.6 °F /  15.9 °C 55 °F /  12.8 °C 30.1in /  1020.7hPa Calm   1mph /  1.6km/h 82% 0in /  0.0mm 0 W/m2
23:50 60.6 °F /  15.9 °C 55 °F /  12.8 °C 30.1in /  1020.7hPa Calm   1mph /  1.6km/h 82% 0in /  0.0mm 0 W/m2
23:55 60.4 °F /  15.8 °C 54.9 °F /  12.7 °C 30.1in /  1020.7hPa SSE 0.9mph /  1.4km/h 1mph /  1.6km/h 82% 0in /  0.0mm 0 W/m2
Juneau County Weather
Compliments of Weather Underground - 4 mb